Impacts TAF Board
For situational awareness. Not to be used for flight planning purposes.
IDs:

KJFK - New York/Kennedy Int, NY, US

Issued at 0223 UTC 10 Dec 2018
Updated at 0402 UTC 10 Dec 2018
Potential Impact None Slight Moderate High
Time0351Z 10/05Z 10/06Z 10/07Z 10/08Z 10/09Z 10/10Z 10/11Z 10/12Z 10/13Z 10/14Z 10/15Z 10/16Z 10/17Z>>
Type OBS PRVL PRVL PRVL PRVL PRVL PRVL PRVL PRVL PRVL PRVL PRVL PRVL PRVL
VIS 10 >6 >6 >6 >6 >6 >6 >6 >6 >6 >6 >6 >6 >6
CIG 240 250 250 250 -- -- -- -- -- -- -- -- -- --
Cover OVC BKN BKN BKN SCT SCT SCT SCT SCT SCT SCT SCT SCT SCT
FltCat VFR VFR VFR VFR VFR VFR VFR VFR VFR VFR VFR VFR VFR VFR
WX -- -- -- -- -- -- -- -- -- -- -- -- -- --
WDir VRB 310 310 310 350 350 350 350 350 360 360 360 360 360
WSpd 0 5 5 5 7 7 7 7 7 11 11 11 11 11
WGst -- -- -- -- -- -- -- -- -- -- -- -- -- --
Raw TAF
KJFK 100223Z 1002/1106 31005KT P6SM BKN250
  FM100800 35007KT P6SM SCT250
  FM101300 36011KT P6SM SCT250
  FM101800 35009KT P6SM SKC
  FM110000 35005KT P6SM SKC


Raw METAR
KJFK 100351Z 00000KT 10SM OVC240 01/M08 A3018 RMK AO2 SLP218 T00061083
KJFK 100251Z 31004KT 10SM OVC220 01/M08 A3021 RMK AO2 SLP230 T00061078 55015
KJFK 100151Z 26008KT 10SM OVC220 01/M06 A3021 RMK AO2 SLP228 T00111056

METAR Board
Radar Display
Forecast Discussion
For situational awareness. Not to be used for flight planning purposes.